sensor_id;sensor_type;location;lat;lon;timestamp;temperature;humidity
51801;DHT22;37855;53.204;6.568;2024-01-30T00:02:19;6.10;80.00
51801;DHT22;37855;53.204;6.568;2024-01-30T00:04:44;6.10;80.20
51801;DHT22;37855;53.204;6.568;2024-01-30T00:07:10;6.10;80.20
51801;DHT22;37855;53.204;6.568;2024-01-30T00:09:35;6.10;80.10
51801;DHT22;37855;53.204;6.568;2024-01-30T00:12:04;6.10;80.20
51801;DHT22;37855;53.204;6.568;2024-01-30T00:14:30;6.10;80.30
51801;DHT22;37855;53.204;6.568;2024-01-30T00:16:55;6.10;80.20
51801;DHT22;37855;53.204;6.568;2024-01-30T00:19:21;6.10;80.30
51801;DHT22;37855;53.204;6.568;2024-01-30T00:21:46;6.10;80.30
51801;DHT22;37855;53.204;6.568;2024-01-30T00:24:12;6.00;80.30
51801;DHT22;37855;53.204;6.568;2024-01-30T00:26:38;6.00;80.40
51801;DHT22;37855;53.204;6.568;2024-01-30T00:29:03;6.00;80.30
51801;DHT22;37855;53.204;6.568;2024-01-30T00:31:29;6.00;80.80
51801;DHT22;37855;53.204;6.568;2024-01-30T00:33:55;6.00;81.00
51801;DHT22;37855;53.204;6.568;2024-01-30T00:36:20;5.90;80.90
51801;DHT22;37855;53.204;6.568;2024-01-30T00:38:46;5.90;80.80
51801;DHT22;37855;53.204;6.568;2024-01-30T00:41:11;5.90;80.70
51801;DHT22;37855;53.204;6.568;2024-01-30T00:43:37;5.90;80.80
51801;DHT22;37855;53.204;6.568;2024-01-30T00:46:03;6.00;80.70
51801;DHT22;37855;53.204;6.568;2024-01-30T00:48:29;6.00;80.80
51801;DHT22;37855;53.204;6.568;2024-01-30T00:50:54;5.90;80.70
51801;DHT22;37855;53.204;6.568;2024-01-30T00:53:20;5.90;80.80
51801;DHT22;37855;53.204;6.568;2024-01-30T00:55:46;5.90;80.80
51801;DHT22;37855;53.204;6.568;2024-01-30T00:58:11;5.90;80.80
51801;DHT22;37855;53.204;6.568;2024-01-30T01:00:37;6.00;80.90
51801;DHT22;37855;53.204;6.568;2024-01-30T01:03:03;5.90;80.90
51801;DHT22;37855;53.204;6.568;2024-01-30T01:05:28;5.90;81.00
51801;DHT22;37855;53.204;6.568;2024-01-30T01:07:54;5.90;81.00
51801;DHT22;37855;53.204;6.568;2024-01-30T01:10:20;5.90;81.00
51801;DHT22;37855;53.204;6.568;2024-01-30T01:12:46;5.90;81.10
51801;DHT22;37855;53.204;6.568;2024-01-30T01:15:12;5.90;81.10
51801;DHT22;37855;53.204;6.568;2024-01-30T01:17:38;5.90;81.20
51801;DHT22;37855;53.204;6.568;2024-01-30T01:20:05;5.90;81.20
51801;DHT22;37855;53.204;6.568;2024-01-30T01:22:34;5.90;81.20
51801;DHT22;37855;53.204;6.568;2024-01-30T01:25:00;6.00;81.30
51801;DHT22;37855;53.204;6.568;2024-01-30T01:27:26;6.00;81.30
51801;DHT22;37855;53.204;6.568;2024-01-30T01:29:52;6.00;81.30
51801;DHT22;37855;53.204;6.568;2024-01-30T01:32:18;6.00;81.30
51801;DHT22;37855;53.204;6.568;2024-01-30T01:34:44;6.00;81.40
51801;DHT22;37855;53.204;6.568;2024-01-30T01:37:09;6.00;81.50
51801;DHT22;37855;53.204;6.568;2024-01-30T01:39:35;6.00;81.50
51801;DHT22;37855;53.204;6.568;2024-01-30T01:42:03;6.00;81.40
51801;DHT22;37855;53.204;6.568;2024-01-30T01:44:29;6.00;81.40
51801;DHT22;37855;53.204;6.568;2024-01-30T01:46:55;6.10;81.60
51801;DHT22;37855;53.204;6.568;2024-01-30T01:49:24;6.10;81.60
51801;DHT22;37855;53.204;6.568;2024-01-30T01:51:51;6.10;81.60
51801;DHT22;37855;53.204;6.568;2024-01-30T01:54:17;6.10;81.50
51801;DHT22;37855;53.204;6.568;2024-01-30T01:56:43;6.10;81.60
51801;DHT22;37855;53.204;6.568;2024-01-30T01:59:09;6.10;81.60
51801;DHT22;37855;53.204;6.568;2024-01-30T02:01:38;6.10;81.70
51801;DHT22;37855;53.204;6.568;2024-01-30T02:04:04;6.10;81.70
51801;DHT22;37855;53.204;6.568;2024-01-30T02:06:30;6.10;81.70
51801;DHT22;37855;53.204;6.568;2024-01-30T02:08:56;6.10;81.70
51801;DHT22;37855;53.204;6.568;2024-01-30T02:11:23;6.10;81.80
51801;DHT22;37855;53.204;6.568;2024-01-30T02:13:49;6.00;81.80
51801;DHT22;37855;53.204;6.568;2024-01-30T02:16:15;6.10;81.80
51801;DHT22;37855;53.204;6.568;2024-01-30T02:18:42;6.00;81.80
51801;DHT22;37855;53.204;6.568;2024-01-30T02:21:11;6.00;81.80
51801;DHT22;37855;53.204;6.568;2024-01-30T02:23:38;6.00;81.80
51801;DHT22;37855;53.204;6.568;2024-01-30T02:26:04;6.00;81.80
51801;DHT22;37855;53.204;6.568;2024-01-30T02:28:30;6.00;81.90
51801;DHT22;37855;53.204;6.568;2024-01-30T02:30:56;6.00;81.90
51801;DHT22;37855;53.204;6.568;2024-01-30T02:33:21;6.00;81.90
51801;DHT22;37855;53.204;6.568;2024-01-30T02:35:49;6.00;81.90
51801;DHT22;37855;53.204;6.568;2024-01-30T02:38:15;6.00;81.90
51801;DHT22;37855;53.204;6.568;2024-01-30T02:40:41;6.00;82.00
51801;DHT22;37855;53.204;6.568;2024-01-30T02:43:07;6.00;82.00
51801;DHT22;37855;53.204;6.568;2024-01-30T02:45:33;6.10;82.10
51801;DHT22;37855;53.204;6.568;2024-01-30T02:47:58;6.10;82.10
51801;DHT22;37855;53.204;6.568;2024-01-30T02:50:24;6.10;82.10
51801;DHT22;37855;53.204;6.568;2024-01-30T02:52:49;6.10;82.10
51801;DHT22;37855;53.204;6.568;2024-01-30T02:55:15;6.10;82.10
51801;DHT22;37855;53.204;6.568;2024-01-30T02:57:43;6.20;82.00
51801;DHT22;37855;53.204;6.568;2024-01-30T03:00:09;6.20;82.00
51801;DHT22;37855;53.204;6.568;2024-01-30T03:02:35;6.20;82.10
51801;DHT22;37855;53.204;6.568;2024-01-30T03:05:01;6.20;82.00
51801;DHT22;37855;53.204;6.568;2024-01-30T03:07:27;6.10;82.10
51801;DHT22;37855;53.204;6.568;2024-01-30T03:09:52;6.20;82.10
51801;DHT22;37855;53.204;6.568;2024-01-30T03:12:21;6.20;82.10
51801;DHT22;37855;53.204;6.568;2024-01-30T03:14:46;6.20;82.10
51801;DHT22;37855;53.204;6.568;2024-01-30T03:17:12;6.20;82.20
51801;DHT22;37855;53.204;6.568;2024-01-30T03:19:38;6.20;82.20
51801;DHT22;37855;53.204;6.568;2024-01-30T03:22:03;6.20;82.20
51801;DHT22;37855;53.204;6.568;2024-01-30T03:24:29;6.20;82.30
51801;DHT22;37855;53.204;6.568;2024-01-30T03:26:54;6.20;82.60
51801;DHT22;37855;53.204;6.568;2024-01-30T03:29:20;6.20;82.40
51801;DHT22;37855;53.204;6.568;2024-01-30T03:31:46;6.20;82.40
51801;DHT22;37855;53.204;6.568;2024-01-30T03:34:11;6.20;82.30
51801;DHT22;37855;53.204;6.568;2024-01-30T03:36:37;6.20;82.30
51801;DHT22;37855;53.204;6.568;2024-01-30T03:39:02;6.20;82.20
51801;DHT22;37855;53.204;6.568;2024-01-30T03:41:28;6.20;82.40
51801;DHT22;37855;53.204;6.568;2024-01-30T03:43:54;6.20;82.50
51801;DHT22;37855;53.204;6.568;2024-01-30T03:46:19;6.20;82.40
51801;DHT22;37855;53.204;6.568;2024-01-30T03:48:45;6.20;82.40
51801;DHT22;37855;53.204;6.568;2024-01-30T03:51:11;6.20;82.50
51801;DHT22;37855;53.204;6.568;2024-01-30T03:53:40;6.30;82.40
51801;DHT22;37855;53.204;6.568;2024-01-30T03:56:06;6.30;82.40
51801;DHT22;37855;53.204;6.568;2024-01-30T03:58:32;6.30;82.50
51801;DHT22;37855;53.204;6.568;2024-01-30T04:00:58;6.30;82.40
51801;DHT22;37855;53.204;6.568;2024-01-30T04:03:23;6.20;82.40
51801;DHT22;37855;53.204;6.568;2024-01-30T04:05:51;6.30;82.50
51801;DHT22;37855;53.204;6.568;2024-01-30T04:08:16;6.30;82.50
51801;DHT22;37855;53.204;6.568;2024-01-30T04:10:42;6.30;82.60
51801;DHT22;37855;53.204;6.568;2024-01-30T04:13:08;6.30;82.50
51801;DHT22;37855;53.204;6.568;2024-01-30T04:15:34;6.30;82.70
51801;DHT22;37855;53.204;6.568;2024-01-30T04:18:00;6.30;82.60
51801;DHT22;37855;53.204;6.568;2024-01-30T04:20:26;6.40;82.50
51801;DHT22;37855;53.204;6.568;2024-01-30T04:22:52;6.40;82.60
51801;DHT22;37855;53.204;6.568;2024-01-30T04:25:17;6.40;82.50
51801;DHT22;37855;53.204;6.568;2024-01-30T04:27:43;6.40;82.60
51801;DHT22;37855;53.204;6.568;2024-01-30T04:30:09;6.50;82.50
51801;DHT22;37855;53.204;6.568;2024-01-30T04:32:35;6.50;82.40
51801;DHT22;37855;53.204;6.568;2024-01-30T04:35:04;6.50;82.40
51801;DHT22;37855;53.204;6.568;2024-01-30T04:37:30;6.60;82.50
51801;DHT22;37855;53.204;6.568;2024-01-30T04:39:56;6.60;82.60
51801;DHT22;37855;53.204;6.568;2024-01-30T04:42:22;6.60;82.50
51801;DHT22;37855;53.204;6.568;2024-01-30T04:44:47;6.70;82.40
51801;DHT22;37855;53.204;6.568;2024-01-30T04:47:13;6.70;82.40
51801;DHT22;37855;53.204;6.568;2024-01-30T04:49:39;6.70;82.30
51801;DHT22;37855;53.204;6.568;2024-01-30T04:52:06;6.70;82.30
51801;DHT22;37855;53.204;6.568;2024-01-30T04:54:31;6.80;82.30
51801;DHT22;37855;53.204;6.568;2024-01-30T04:56:57;6.80;82.30
51801;DHT22;37855;53.204;6.568;2024-01-30T04:59:22;6.80;82.50
51801;DHT22;37855;53.204;6.568;2024-01-30T05:01:48;6.80;82.40
51801;DHT22;37855;53.204;6.568;2024-01-30T05:04:14;6.80;82.30
51801;DHT22;37855;53.204;6.568;2024-01-30T05:06:39;6.90;82.20
51801;DHT22;37855;53.204;6.568;2024-01-30T05:09:05;6.90;82.20
51801;DHT22;37855;53.204;6.568;2024-01-30T05:11:31;6.90;82.10
51801;DHT22;37855;53.204;6.568;2024-01-30T05:13:59;6.90;82.00
51801;DHT22;37855;53.204;6.568;2024-01-30T05:16:24;7.00;82.00
51801;DHT22;37855;53.204;6.568;2024-01-30T05:18:50;7.00;82.00
51801;DHT22;37855;53.204;6.568;2024-01-30T05:21:16;7.00;81.90
51801;DHT22;37855;53.204;6.568;2024-01-30T05:23:41;7.00;81.90
51801;DHT22;37855;53.204;6.568;2024-01-30T05:26:08;7.00;81.90
51801;DHT22;37855;53.204;6.568;2024-01-30T05:28:33;7.00;81.90
51801;DHT22;37855;53.204;6.568;2024-01-30T05:30:59;7.10;81.80
51801;DHT22;37855;53.204;6.568;2024-01-30T05:33:24;7.10;81.80
51801;DHT22;37855;53.204;6.568;2024-01-30T05:35:50;7.10;81.80
51801;DHT22;37855;53.204;6.568;2024-01-30T05:38:19;7.10;81.80
51801;DHT22;37855;53.204;6.568;2024-01-30T05:40:45;7.10;81.70
51801;DHT22;37855;53.204;6.568;2024-01-30T05:43:11;7.10;81.60
51801;DHT22;37855;53.204;6.568;2024-01-30T05:45:37;7.10;81.60
51801;DHT22;37855;53.204;6.568;2024-01-30T05:48:02;7.10;81.60
51801;DHT22;37855;53.204;6.568;2024-01-30T05:50:28;7.10;81.50
51801;DHT22;37855;53.204;6.568;2024-01-30T05:52:54;7.10;81.50
51801;DHT22;37855;53.204;6.568;2024-01-30T05:55:20;7.20;81.50
51801;DHT22;37855;53.204;6.568;2024-01-30T05:57:45;7.20;81.50
51801;DHT22;37855;53.204;6.568;2024-01-30T06:00:11;7.20;81.40
51801;DHT22;37855;53.204;6.568;2024-01-30T06:02:37;7.20;81.30
51801;DHT22;37855;53.204;6.568;2024-01-30T06:05:02;7.20;81.30
51801;DHT22;37855;53.204;6.568;2024-01-30T06:07:28;7.20;81.20
51801;DHT22;37855;53.204;6.568;2024-01-30T06:09:54;7.20;81.20
51801;DHT22;37855;53.204;6.568;2024-01-30T06:12:20;7.20;81.20
51801;DHT22;37855;53.204;6.568;2024-01-30T06:14:45;7.20;81.10
51801;DHT22;37855;53.204;6.568;2024-01-30T06:17:11;7.20;81.10
51801;DHT22;37855;53.204;6.568;2024-01-30T06:19:38;7.20;81.00
51801;DHT22;37855;53.204;6.568;2024-01-30T06:22:04;7.20;81.00
51801;DHT22;37855;53.204;6.568;2024-01-30T06:24:30;7.20;81.00
51801;DHT22;37855;53.204;6.568;2024-01-30T06:26:56;7.20;80.90
51801;DHT22;37855;53.204;6.568;2024-01-30T06:29:21;7.20;80.90
51801;DHT22;37855;53.204;6.568;2024-01-30T06:31:47;7.20;80.90
51801;DHT22;37855;53.204;6.568;2024-01-30T06:34:13;7.20;80.90
51801;DHT22;37855;53.204;6.568;2024-01-30T06:36:38;7.20;80.80
51801;DHT22;37855;53.204;6.568;2024-01-30T06:39:04;7.20;80.80
51801;DHT22;37855;53.204;6.568;2024-01-30T06:41:36;7.20;80.80
51801;DHT22;37855;53.204;6.568;2024-01-30T06:44:02;7.20;80.80
51801;DHT22;37855;53.204;6.568;2024-01-30T06:46:30;7.30;80.80
51801;DHT22;37855;53.204;6.568;2024-01-30T06:48:55;7.20;80.90
51801;DHT22;37855;53.204;6.568;2024-01-30T06:51:21;7.30;80.80
51801;DHT22;37855;53.204;6.568;2024-01-30T06:53:46;7.30;80.80
51801;DHT22;37855;53.204;6.568;2024-01-30T06:56:12;7.30;80.80
51801;DHT22;37855;53.204;6.568;2024-01-30T06:58:38;7.30;80.80
51801;DHT22;37855;53.204;6.568;2024-01-30T07:01:04;7.30;80.80
51801;DHT22;37855;53.204;6.568;2024-01-30T07:03:29;7.30;80.80
51801;DHT22;37855;53.204;6.568;2024-01-30T07:05:55;7.30;80.80
51801;DHT22;37855;53.204;6.568;2024-01-30T07:08:21;7.30;80.70
51801;DHT22;37855;53.204;6.568;2024-01-30T07:10:47;7.30;80.70
51801;DHT22;37855;53.204;6.568;2024-01-30T07:13:13;7.40;80.70
51801;DHT22;37855;53.204;6.568;2024-01-30T07:15:42;7.40;80.80
51801;DHT22;37855;53.204;6.568;2024-01-30T07:18:07;7.40;80.80
51801;DHT22;37855;53.204;6.568;2024-01-30T07:20:33;7.40;80.70
51801;DHT22;37855;53.204;6.568;2024-01-30T07:22:59;7.40;80.70
51801;DHT22;37855;53.204;6.568;2024-01-30T07:25:24;7.40;80.80
51801;DHT22;37855;53.204;6.568;2024-01-30T07:27:54;7.40;80.70
51801;DHT22;37855;53.204;6.568;2024-01-30T07:30:20;7.50;80.70
51801;DHT22;37855;53.204;6.568;2024-01-30T07:32:47;7.40;80.80
51801;DHT22;37855;53.204;6.568;2024-01-30T07:35:13;7.50;80.70
51801;DHT22;37855;53.204;6.568;2024-01-30T07:37:39;7.50;80.70
51801;DHT22;37855;53.204;6.568;2024-01-30T07:40:05;7.50;80.70
51801;DHT22;37855;53.204;6.568;2024-01-30T07:42:32;7.50;80.60
51801;DHT22;37855;53.204;6.568;2024-01-30T07:44:58;7.50;80.80
51801;DHT22;37855;53.204;6.568;2024-01-30T07:47:23;7.60;80.70
51801;DHT22;37855;53.204;6.568;2024-01-30T07:49:49;7.50;80.80
51801;DHT22;37855;53.204;6.568;2024-01-30T07:52:14;7.60;80.80
51801;DHT22;37855;53.204;6.568;2024-01-30T07:54:49;7.60;80.80
51801;DHT22;37855;53.204;6.568;2024-01-30T07:57:15;7.60;80.80
51801;DHT22;37855;53.204;6.568;2024-01-30T07:59:44;7.60;80.90
51801;DHT22;37855;53.204;6.568;2024-01-30T08:02:12;7.60;80.90
51801;DHT22;37855;53.204;6.568;2024-01-30T08:04:38;7.60;80.80
51801;DHT22;37855;53.204;6.568;2024-01-30T08:07:04;7.60;80.80
51801;DHT22;37855;53.204;6.568;2024-01-30T08:09:29;7.70;80.80
51801;DHT22;37855;53.204;6.568;2024-01-30T08:11:55;7.70;80.80
51801;DHT22;37855;53.204;6.568;2024-01-30T08:14:20;7.70;80.90
51801;DHT22;37855;53.204;6.568;2024-01-30T08:16:46;7.70;80.90
51801;DHT22;37855;53.204;6.568;2024-01-30T08:19:12;7.80;80.90
51801;DHT22;37855;53.204;6.568;2024-01-30T08:21:37;7.80;80.90
51801;DHT22;37855;53.204;6.568;2024-01-30T08:24:04;7.80;80.90
51801;DHT22;37855;53.204;6.568;2024-01-30T08:26:31;7.80;80.80
51801;DHT22;37855;53.204;6.568;2024-01-30T08:29:02;7.80;80.70
51801;DHT22;37855;53.204;6.568;2024-01-30T08:31:27;7.80;80.70
51801;DHT22;37855;53.204;6.568;2024-01-30T08:33:53;7.80;80.70
51801;DHT22;37855;53.204;6.568;2024-01-30T08:36:21;7.90;80.70
51801;DHT22;37855;53.204;6.568;2024-01-30T08:38:47;7.90;80.60
51801;DHT22;37855;53.204;6.568;2024-01-30T08:41:13;7.90;80.60
51801;DHT22;37855;53.204;6.568;2024-01-30T08:43:41;7.90;80.60
51801;DHT22;37855;53.204;6.568;2024-01-30T08:46:07;7.90;80.60
51801;DHT22;37855;53.204;6.568;2024-01-30T08:48:33;8.00;80.60
51801;DHT22;37855;53.204;6.568;2024-01-30T08:50:58;8.00;80.50
51801;DHT22;37855;53.204;6.568;2024-01-30T08:53:24;8.00;80.50
51801;DHT22;37855;53.204;6.568;2024-01-30T08:55:50;8.10;80.40
51801;DHT22;37855;53.204;6.568;2024-01-30T08:58:16;8.10;80.40
51801;DHT22;37855;53.204;6.568;2024-01-30T09:00:43;8.10;80.30
51801;DHT22;37855;53.204;6.568;2024-01-30T09:03:09;8.20;80.30
51801;DHT22;37855;53.204;6.568;2024-01-30T09:05:34;8.20;80.30
51801;DHT22;37855;53.204;6.568;2024-01-30T09:08:00;8.20;80.30
51801;DHT22;37855;53.204;6.568;2024-01-30T09:10:26;8.20;80.20
51801;DHT22;37855;53.204;6.568;2024-01-30T09:12:52;8.30;80.10
51801;DHT22;37855;53.204;6.568;2024-01-30T09:15:18;8.30;80.10
51801;DHT22;37855;53.204;6.568;2024-01-30T09:17:44;8.30;80.10
51801;DHT22;37855;53.204;6.568;2024-01-30T09:20:10;8.30;80.00
51801;DHT22;37855;53.204;6.568;2024-01-30T09:22:36;8.40;80.10
51801;DHT22;37855;53.204;6.568;2024-01-30T09:25:05;8.40;80.00
51801;DHT22;37855;53.204;6.568;2024-01-30T09:27:30;8.40;79.90
51801;DHT22;37855;53.204;6.568;2024-01-30T09:29:56;8.50;79.90
51801;DHT22;37855;53.204;6.568;2024-01-30T09:32:22;8.50;79.90
51801;DHT22;37855;53.204;6.568;2024-01-30T09:34:47;8.50;79.90
51801;DHT22;37855;53.204;6.568;2024-01-30T09:37:13;8.60;79.90
51801;DHT22;37855;53.204;6.568;2024-01-30T09:39:41;8.60;79.90
51801;DHT22;37855;53.204;6.568;2024-01-30T09:42:28;8.70;79.80
51801;DHT22;37855;53.204;6.568;2024-01-30T09:44:57;8.80;79.70
51801;DHT22;37855;53.204;6.568;2024-01-30T09:47:23;8.80;79.70
51801;DHT22;37855;53.204;6.568;2024-01-30T09:49:49;8.80;79.60
51801;DHT22;37855;53.204;6.568;2024-01-30T09:52:15;8.90;79.60
51801;DHT22;37855;53.204;6.568;2024-01-30T09:54:43;8.90;79.50
51801;DHT22;37855;53.204;6.568;2024-01-30T09:57:11;8.90;79.50
51801;DHT22;37855;53.204;6.568;2024-01-30T09:59:37;8.90;79.50
51801;DHT22;37855;53.204;6.568;2024-01-30T10:02:02;9.00;79.50
51801;DHT22;37855;53.204;6.568;2024-01-30T10:04:30;9.00;79.50
51801;DHT22;37855;53.204;6.568;2024-01-30T10:06:56;9.00;79.60
51801;DHT22;37855;53.204;6.568;2024-01-30T10:09:21;9.00;79.60
51801;DHT22;37855;53.204;6.568;2024-01-30T10:11:48;9.10;79.50
51801;DHT22;37855;53.204;6.568;2024-01-30T10:14:16;9.10;79.60
51801;DHT22;37855;53.204;6.568;2024-01-30T10:16:42;9.10;79.60
51801;DHT22;37855;53.204;6.568;2024-01-30T10:19:09;9.10;79.60
51801;DHT22;37855;53.204;6.568;2024-01-30T10:21:35;9.20;79.70
51801;DHT22;37855;53.204;6.568;2024-01-30T10:24:00;9.30;79.80
51801;DHT22;37855;53.204;6.568;2024-01-30T10:26:26;9.30;79.70
51801;DHT22;37855;53.204;6.568;2024-01-30T10:28:52;9.40;79.90
51801;DHT22;37855;53.204;6.568;2024-01-30T10:31:18;9.40;80.00
51801;DHT22;37855;53.204;6.568;2024-01-30T10:33:44;9.40;80.10
51801;DHT22;37855;53.204;6.568;2024-01-30T10:36:13;9.40;80.00
51801;DHT22;37855;53.204;6.568;2024-01-30T10:38:42;9.40;80.00
51801;DHT22;37855;53.204;6.568;2024-01-30T10:41:08;9.40;80.10
51801;DHT22;37855;53.204;6.568;2024-01-30T10:43:41;9.50;79.90
51801;DHT22;37855;53.204;6.568;2024-01-30T10:46:19;9.50;79.90
51801;DHT22;37855;53.204;6.568;2024-01-30T10:48:52;9.50;79.90
51801;DHT22;37855;53.204;6.568;2024-01-30T10:51:22;9.50;79.80
51801;DHT22;37855;53.204;6.568;2024-01-30T10:53:49;9.60;79.90
51801;DHT22;37855;53.204;6.568;2024-01-30T10:56:16;9.60;79.90
51801;DHT22;37855;53.204;6.568;2024-01-30T10:58:41;9.60;79.90
51801;DHT22;37855;53.204;6.568;2024-01-30T11:01:07;9.60;79.90
51801;DHT22;37855;53.204;6.568;2024-01-30T11:03:34;9.60;79.80
51801;DHT22;37855;53.204;6.568;2024-01-30T11:06:04;9.60;79.80
51801;DHT22;37855;53.204;6.568;2024-01-30T11:08:32;9.60;79.80
51801;DHT22;37855;53.204;6.568;2024-01-30T11:10:58;9.60;79.80
51801;DHT22;37855;53.204;6.568;2024-01-30T11:13:31;9.60;79.90
51801;DHT22;37855;53.204;6.568;2024-01-30T11:16:06;9.60;79.90
51801;DHT22;37855;53.204;6.568;2024-01-30T11:18:33;9.60;79.70
51801;DHT22;37855;53.204;6.568;2024-01-30T11:21:04;9.70;79.70
51801;DHT22;37855;53.204;6.568;2024-01-30T11:23:31;9.70;79.80
51801;DHT22;37855;53.204;6.568;2024-01-30T11:25:58;9.60;79.70
51801;DHT22;37855;53.204;6.568;2024-01-30T11:28:24;9.70;79.60
51801;DHT22;37855;53.204;6.568;2024-01-30T11:30:50;9.70;79.40
51801;DHT22;37855;53.204;6.568;2024-01-30T11:33:30;9.70;79.30
51801;DHT22;37855;53.204;6.568;2024-01-30T11:35:57;9.80;79.10
51801;DHT22;37855;53.204;6.568;2024-01-30T11:38:26;9.80;78.90
51801;DHT22;37855;53.204;6.568;2024-01-30T11:40:54;9.80;78.80
51801;DHT22;37855;53.204;6.568;2024-01-30T11:43:20;9.80;78.60
51801;DHT22;37855;53.204;6.568;2024-01-30T11:45:45;9.80;78.60
51801;DHT22;37855;53.204;6.568;2024-01-30T11:48:12;9.80;78.50
51801;DHT22;37855;53.204;6.568;2024-01-30T11:50:39;9.80;78.10
51801;DHT22;37855;53.204;6.568;2024-01-30T11:53:05;9.70;78.10
51801;DHT22;37855;53.204;6.568;2024-01-30T11:55:32;9.70;77.50
51801;DHT22;37855;53.204;6.568;2024-01-30T11:57:58;9.70;77.50
51801;DHT22;37855;53.204;6.568;2024-01-30T12:00:24;9.70;77.60
51801;DHT22;37855;53.204;6.568;2024-01-30T12:02:54;9.60;77.00
51801;DHT22;37855;53.204;6.568;2024-01-30T12:05:26;9.60;76.90
51801;DHT22;37855;53.204;6.568;2024-01-30T12:07:52;9.60;76.80
51801;DHT22;37855;53.204;6.568;2024-01-30T12:10:18;9.60;76.60
51801;DHT22;37855;53.204;6.568;2024-01-30T12:12:51;9.60;76.50
51801;DHT22;37855;53.204;6.568;2024-01-30T12:15:18;9.50;76.50
51801;DHT22;37855;53.204;6.568;2024-01-30T12:17:47;9.50;76.70
51801;DHT22;37855;53.204;6.568;2024-01-30T12:20:13;9.40;76.80
51801;DHT22;37855;53.204;6.568;2024-01-30T12:22:45;9.40;77.10
51801;DHT22;37855;53.204;6.568;2024-01-30T12:25:16;9.40;76.90
51801;DHT22;37855;53.204;6.568;2024-01-30T12:27:43;9.40;76.80
51801;DHT22;37855;53.204;6.568;2024-01-30T12:30:11;9.40;76.70
51801;DHT22;37855;53.204;6.568;2024-01-30T12:32:39;9.40;76.70
51801;DHT22;37855;53.204;6.568;2024-01-30T12:35:16;9.40;76.70
51801;DHT22;37855;53.204;6.568;2024-01-30T12:37:46;9.40;76.80
51801;DHT22;37855;53.204;6.568;2024-01-30T12:40:13;9.40;76.70
51801;DHT22;37855;53.204;6.568;2024-01-30T12:42:40;9.40;76.10
51801;DHT22;37855;53.204;6.568;2024-01-30T12:45:08;9.40;76.30
51801;DHT22;37855;53.204;6.568;2024-01-30T12:47:34;9.40;76.30
51801;DHT22;37855;53.204;6.568;2024-01-30T12:50:00;9.50;76.20
51801;DHT22;37855;53.204;6.568;2024-01-30T15:48:13;8.40;83.30
51801;DHT22;37855;53.204;6.568;2024-01-30T15:50:39;8.40;83.70
51801;DHT22;37855;53.204;6.568;2024-01-30T15:53:05;8.40;83.80
51801;DHT22;37855;53.204;6.568;2024-01-30T15:55:30;8.30;83.90
51801;DHT22;37855;53.204;6.568;2024-01-30T15:57:56;8.30;84.10
51801;DHT22;37855;53.204;6.568;2024-01-30T16:00:22;8.30;84.20
51801;DHT22;37855;53.204;6.568;2024-01-30T16:02:48;8.30;84.10
51801;DHT22;37855;53.204;6.568;2024-01-30T16:05:13;8.20;84.30
51801;DHT22;37855;53.204;6.568;2024-01-30T16:07:39;8.20;84.60
51801;DHT22;37855;53.204;6.568;2024-01-30T16:10:05;8.20;84.60
51801;DHT22;37855;53.204;6.568;2024-01-30T16:16:13;8.20;84.50
51801;DHT22;37855;53.204;6.568;2024-01-30T16:18:38;8.20;84.50
51801;DHT22;37855;53.204;6.568;2024-01-30T16:21:04;8.20;84.50
51801;DHT22;37855;53.204;6.568;2024-01-30T16:23:34;8.20;84.30
51801;DHT22;37855;53.204;6.568;2024-01-30T16:26:00;8.20;84.20
51801;DHT22;37855;53.204;6.568;2024-01-30T16:28:25;8.20;84.00
51801;DHT22;37855;53.204;6.568;2024-01-30T16:30:51;8.20;83.90
51801;DHT22;37855;53.204;6.568;2024-01-30T16:33:17;8.10;83.70
51801;DHT22;37855;53.204;6.568;2024-01-30T16:35:44;8.10;83.40
51801;DHT22;37855;53.204;6.568;2024-01-30T16:38:10;8.10;83.50
51801;DHT22;37855;53.204;6.568;2024-01-30T16:40:35;8.00;83.50
51801;DHT22;37855;53.204;6.568;2024-01-30T16:43:04;8.00;83.60
51801;DHT22;37855;53.204;6.568;2024-01-30T16:45:30;7.90;83.60
51801;DHT22;37855;53.204;6.568;2024-01-30T16:47:55;7.90;83.60
51801;DHT22;37855;53.204;6.568;2024-01-30T16:50:21;7.90;83.70
51801;DHT22;37855;53.204;6.568;2024-01-30T16:52:46;7.80;83.70
51801;DHT22;37855;53.204;6.568;2024-01-30T16:55:12;7.80;83.80
51801;DHT22;37855;53.204;6.568;2024-01-30T16:57:38;7.80;83.90
51801;DHT22;37855;53.204;6.568;2024-01-30T17:00:05;7.80;83.80
51801;DHT22;37855;53.204;6.568;2024-01-30T17:02:33;7.80;83.70
51801;DHT22;37855;53.204;6.568;2024-01-30T17:04:59;7.80;83.80
51801;DHT22;37855;53.204;6.568;2024-01-30T17:07:25;7.80;84.00
51801;DHT22;37855;53.204;6.568;2024-01-30T17:09:50;7.80;83.80
51801;DHT22;37855;53.204;6.568;2024-01-30T17:12:16;7.80;83.90
51801;DHT22;37855;53.204;6.568;2024-01-30T17:14:42;7.80;83.90
51801;DHT22;37855;53.204;6.568;2024-01-30T17:17:07;7.80;83.80
51801;DHT22;37855;53.204;6.568;2024-01-30T17:19:35;7.80;83.80
51801;DHT22;37855;53.204;6.568;2024-01-30T17:22:00;7.80;83.90
51801;DHT22;37855;53.204;6.568;2024-01-30T17:24:26;7.80;83.80
51801;DHT22;37855;53.204;6.568;2024-01-30T17:26:51;7.80;83.70
51801;DHT22;37855;53.204;6.568;2024-01-30T17:29:17;7.70;83.70
51801;DHT22;37855;53.204;6.568;2024-01-30T17:31:43;7.80;83.50
51801;DHT22;37855;53.204;6.568;2024-01-30T17:34:11;7.70;83.50
51801;DHT22;37855;53.204;6.568;2024-01-30T17:36:36;7.70;83.60
51801;DHT22;37855;53.204;6.568;2024-01-30T17:39:02;7.70;83.40
51801;DHT22;37855;53.204;6.568;2024-01-30T17:41:27;7.60;83.20
51801;DHT22;37855;53.204;6.568;2024-01-30T17:43:53;7.60;83.30
51801;DHT22;37855;53.204;6.568;2024-01-30T17:46:19;7.60;83.20
51801;DHT22;37855;53.204;6.568;2024-01-30T17:48:44;7.60;83.20
51801;DHT22;37855;53.204;6.568;2024-01-30T17:51:10;7.60;83.10
51801;DHT22;37855;53.204;6.568;2024-01-30T17:53:35;7.50;83.20
51801;DHT22;37855;53.204;6.568;2024-01-30T17:56:04;7.50;83.10
51801;DHT22;37855;53.204;6.568;2024-01-30T17:58:31;7.50;83.20
51801;DHT22;37855;53.204;6.568;2024-01-30T18:00:58;7.50;83.10
51801;DHT22;37855;53.204;6.568;2024-01-30T18:03:25;7.50;82.90
51801;DHT22;37855;53.204;6.568;2024-01-30T18:05:51;7.50;82.60
51801;DHT22;37855;53.204;6.568;2024-01-30T18:08:17;7.50;82.80
51801;DHT22;37855;53.204;6.568;2024-01-30T18:10:42;7.40;82.60
51801;DHT22;37855;53.204;6.568;2024-01-30T18:13:08;7.40;82.70
51801;DHT22;37855;53.204;6.568;2024-01-30T18:15:34;7.40;82.70
51801;DHT22;37855;53.204;6.568;2024-01-30T18:18:01;7.40;82.50
51801;DHT22;37855;53.204;6.568;2024-01-30T18:20:27;7.40;82.60
51801;DHT22;37855;53.204;6.568;2024-01-30T18:22:52;7.40;82.60
51801;DHT22;37855;53.204;6.568;2024-01-30T18:25:18;7.40;82.60
51801;DHT22;37855;53.204;6.568;2024-01-30T18:27:43;7.40;82.30
51801;DHT22;37855;53.204;6.568;2024-01-30T18:30:13;7.40;82.20
51801;DHT22;37855;53.204;6.568;2024-01-30T18:32:38;7.30;82.20
51801;DHT22;37855;53.204;6.568;2024-01-30T18:35:04;7.30;82.30
51801;DHT22;37855;53.204;6.568;2024-01-30T18:37:30;7.30;82.00
51801;DHT22;37855;53.204;6.568;2024-01-30T18:39:56;7.30;82.20